createdAt,value
2023-04-03T00:00:33.853Z,6.81
2023-04-03T00:03:00.593Z,6.78
2023-04-03T00:05:27.513Z,6.75
2023-04-03T00:07:54.074Z,6.71
2023-04-03T00:10:20.790Z,6.69
2023-04-03T00:12:47.391Z,6.65
2023-04-03T00:15:13.980Z,6.62
2023-04-03T00:17:40.643Z,6.59
2023-04-03T00:20:07.534Z,6.56
2023-04-03T00:22:34.166Z,6.54
2023-04-03T00:25:01.091Z,6.53
2023-04-03T00:27:27.755Z,6.49
2023-04-03T00:29:54.322Z,6.47
2023-04-03T00:32:20.872Z,6.45
2023-04-03T00:34:47.465Z,6.42
2023-04-03T00:37:14.074Z,6.39
2023-04-03T00:39:40.731Z,6.37
2023-04-03T00:42:07.677Z,6.35
2023-04-03T00:44:34.217Z,6.31
2023-04-03T00:47:01.449Z,6.29
2023-04-03T00:49:29.116Z,6.26
2023-04-03T00:51:57.510Z,6.23
2023-04-03T00:54:24.120Z,6.20
2023-04-03T00:56:52.486Z,6.17
2023-04-03T00:59:26.513Z,6.14
2023-04-03T01:01:56.021Z,6.10
2023-04-03T01:04:30.092Z,6.07
2023-04-03T01:06:58.827Z,6.03
2023-04-03T01:09:25.753Z,6.00
2023-04-03T01:11:52.578Z,5.97
2023-04-03T01:14:19.238Z,5.93
2023-04-03T01:16:53.548Z,5.90
2023-04-03T01:19:20.931Z,5.86
2023-04-03T01:21:48.031Z,5.83
2023-04-03T01:24:17.477Z,5.80
2023-04-03T01:26:44.286Z,5.75
2023-04-03T01:29:10.964Z,5.73
2023-04-03T01:31:40.349Z,5.70
2023-04-03T01:34:07.005Z,5.66
2023-04-03T01:36:33.541Z,5.63
2023-04-03T01:39:00.761Z,5.60
2023-04-03T01:41:27.331Z,5.56
2023-04-03T01:43:53.922Z,5.54
2023-04-03T01:46:20.946Z,5.50
2023-04-03T01:48:47.607Z,5.48
2023-04-03T01:51:14.331Z,5.44
2023-04-03T01:53:40.982Z,5.41
2023-04-03T01:56:07.690Z,5.39
2023-04-03T01:58:34.290Z,5.37
2023-04-03T02:01:00.896Z,5.34
2023-04-03T02:03:27.566Z,5.31
2023-04-03T02:05:54.260Z,5.28
2023-04-03T02:08:20.853Z,5.26
2023-04-03T02:10:51.055Z,5.22
2023-04-03T02:13:18.123Z,5.21
2023-04-03T02:15:44.710Z,5.18
2023-04-03T02:18:11.308Z,5.16
2023-04-03T02:20:38.439Z,5.13
2023-04-03T02:23:05.210Z,5.12
2023-04-03T02:25:32.424Z,5.10
2023-04-03T02:27:59.188Z,5.10
2023-04-03T02:30:26.431Z,5.07
2023-04-03T02:32:53.082Z,5.05
2023-04-03T02:35:20.099Z,5.03
2023-04-03T02:37:46.803Z,5.02
2023-04-03T02:40:13.700Z,5.00
2023-04-03T02:42:40.598Z,4.99
2023-04-03T02:45:07.462Z,4.97
2023-04-03T02:47:34.013Z,4.96
2023-04-03T02:50:00.652Z,4.94
2023-04-03T02:52:27.211Z,4.91
2023-04-03T02:54:53.780Z,4.90
2023-04-03T02:57:21.213Z,4.88
2023-04-03T02:59:47.963Z,4.84
2023-04-03T03:02:14.557Z,4.82
2023-04-03T03:04:41.492Z,4.79
2023-04-03T03:07:08.177Z,4.76
2023-04-03T03:09:35.207Z,4.74
2023-04-03T03:12:01.828Z,4.71
2023-04-03T03:14:28.412Z,4.67
2023-04-03T03:16:55.067Z,4.64
2023-04-03T03:19:21.659Z,4.62
2023-04-03T03:21:48.342Z,4.59
2023-04-03T03:24:16.900Z,4.55
2023-04-03T03:26:43.688Z,4.53
2023-04-03T03:29:10.295Z,4.50
2023-04-03T03:31:36.926Z,4.48
2023-04-03T03:34:03.507Z,4.45
2023-04-03T03:36:30.090Z,4.43
2023-04-03T03:38:56.638Z,4.41
2023-04-03T03:41:23.194Z,4.39
2023-04-03T03:43:49.824Z,4.36
2023-04-03T03:46:16.447Z,4.34
2023-04-03T03:48:43.130Z,4.30
2023-04-03T03:51:11.277Z,4.28
2023-04-03T03:53:37.903Z,4.25
2023-04-03T03:56:04.908Z,4.23
2023-04-03T03:58:31.614Z,4.20
2023-04-03T04:00:58.211Z,4.19
2023-04-03T04:03:24.903Z,4.16
2023-04-03T04:05:52.938Z,4.13
2023-04-03T04:08:19.721Z,4.11
2023-04-03T04:10:47.477Z,4.09
2023-04-03T04:13:16.702Z,4.05
2023-04-03T04:15:43.806Z,4.03
2023-04-03T04:18:10.470Z,3.99
2023-04-03T04:20:37.108Z,3.96
2023-04-03T04:23:03.853Z,3.92
2023-04-03T04:25:30.571Z,3.94
2023-04-03T04:27:57.299Z,4.13
2023-04-03T04:30:23.900Z,4.43
2023-04-03T04:32:51.086Z,4.77
2023-04-03T04:35:18.250Z,5.06
2023-04-03T04:37:45.160Z,5.29
2023-04-03T04:40:12.062Z,5.45
2023-04-03T04:42:38.689Z,5.53
2023-04-03T04:45:05.757Z,5.61
2023-04-03T04:47:32.434Z,5.75
2023-04-03T04:49:59.126Z,5.97
2023-04-03T04:52:25.769Z,6.23
2023-04-03T04:54:52.468Z,6.51
2023-04-03T04:57:19.134Z,6.79
2023-04-03T04:59:45.820Z,7.08
2023-04-03T05:02:12.542Z,7.35
2023-04-03T05:04:39.253Z,7.64
2023-04-03T05:07:05.905Z,7.85
2023-04-03T05:09:32.499Z,8.00
2023-04-03T05:11:59.091Z,8.09
2023-04-03T05:14:25.765Z,8.11
2023-04-03T05:16:55.112Z,8.08
2023-04-03T05:19:22.257Z,8.01
2023-04-03T05:21:48.816Z,7.89
2023-04-03T05:24:15.940Z,7.76
2023-04-03T05:26:42.898Z,7.61
2023-04-03T05:29:09.606Z,7.43
2023-04-03T05:31:36.257Z,7.27
2023-04-03T05:34:03.089Z,7.11
2023-04-03T05:36:29.736Z,6.95
2023-04-03T05:38:57.464Z,6.81
2023-04-03T05:41:24.361Z,6.66
2023-04-03T05:43:51.129Z,6.51
2023-04-03T05:46:18.920Z,6.38
2023-04-03T05:48:45.540Z,6.25
2023-04-03T05:51:17.124Z,6.14
2023-04-03T05:53:44.644Z,6.03
2023-04-03T05:56:11.140Z,5.94
2023-04-03T05:58:37.710Z,5.84
2023-04-03T06:01:04.791Z,5.77
2023-04-03T06:03:31.715Z,5.72
2023-04-03T06:05:58.419Z,5.65
2023-04-03T06:08:25.255Z,5.60
2023-04-03T06:10:52.663Z,5.56
2023-04-03T06:13:19.143Z,5.53
2023-04-03T06:15:45.597Z,5.52
2023-04-03T06:18:12.140Z,5.49
2023-04-03T06:20:38.881Z,5.48
2023-04-03T06:23:07.452Z,5.49
2023-04-03T06:25:35.581Z,5.49
2023-04-03T06:28:02.090Z,5.50
2023-04-03T06:30:28.710Z,5.51
2023-04-03T06:32:55.233Z,5.53
2023-04-03T06:35:22.123Z,5.55
2023-04-03T06:37:48.582Z,5.58
2023-04-03T06:40:19.735Z,5.61
2023-04-03T06:42:47.040Z,5.65
2023-04-03T06:45:13.565Z,5.70
2023-04-03T06:47:40.048Z,5.75
2023-04-03T06:50:07.716Z,5.80
2023-04-03T06:52:34.314Z,5.85
2023-04-03T06:55:01.504Z,5.92
2023-04-03T06:57:28.149Z,5.97
2023-04-03T06:59:54.677Z,6.03
2023-04-03T07:02:22.108Z,6.09
2023-04-03T07:04:48.937Z,6.16
2023-04-03T07:07:15.934Z,6.25
2023-04-03T07:09:45.138Z,6.33
2023-04-03T07:12:12.023Z,6.42
2023-04-03T07:14:38.521Z,6.49
2023-04-03T07:17:05.016Z,6.57
2023-04-03T07:19:32.369Z,6.65
2023-04-03T07:21:59.034Z,6.71
2023-04-03T07:24:25.634Z,6.79
2023-04-03T07:26:53.503Z,6.87
2023-04-03T07:29:21.313Z,6.95
2023-04-03T07:31:48.208Z,7.04
2023-04-03T07:34:14.760Z,7.14
2023-04-03T07:36:41.882Z,7.23
2023-04-03T07:39:09.291Z,7.33
2023-04-03T07:41:35.784Z,7.44
2023-04-03T07:44:02.373Z,7.54
2023-04-03T07:46:28.929Z,7.64
2023-04-03T07:48:56.695Z,7.74
2023-04-03T07:51:25.800Z,7.84
2023-04-03T07:53:52.286Z,7.94
2023-04-03T07:56:18.860Z,8.06
2023-04-03T07:58:45.345Z,8.18
2023-04-03T08:01:12.074Z,8.30
2023-04-03T08:03:39.435Z,8.38
2023-04-03T08:06:11.734Z,8.48
2023-04-03T08:08:42.342Z,8.56
2023-04-03T08:11:09.626Z,8.61
2023-04-03T08:13:36.799Z,8.67
2023-04-03T08:16:10.598Z,8.72
2023-04-03T08:18:37.188Z,8.77
2023-04-03T08:21:06.903Z,8.81
2023-04-03T08:23:33.412Z,8.85
2023-04-03T08:25:59.848Z,8.91
2023-04-03T08:28:26.445Z,8.97
2023-04-03T08:30:52.958Z,9.06
2023-04-03T08:33:19.463Z,9.14
2023-04-03T08:35:45.959Z,9.25
2023-04-03T08:38:12.456Z,9.36
2023-04-03T08:40:39.421Z,9.50
2023-04-03T08:43:36.078Z,9.61
2023-04-03T08:46:06.306Z,9.78
2023-04-03T08:48:37.626Z,9.92
2023-04-03T08:51:12.092Z,10.08
2023-04-03T08:53:41.102Z,10.21
2023-04-03T08:56:09.765Z,10.39
2023-04-03T08:58:47.824Z,10.52
2023-04-03T09:01:22.835Z,10.63
2023-04-03T09:03:49.449Z,10.75
2023-04-03T09:06:19.312Z,10.84
2023-04-03T09:08:55.041Z,10.92
2023-04-03T09:11:34.816Z,11.00
2023-04-03T09:14:26.443Z,11.05
2023-04-03T09:16:58.002Z,11.06
2023-04-03T09:19:39.988Z,11.08
2023-04-03T09:22:09.686Z,11.12
2023-04-03T09:24:37.063Z,11.19
2023-04-03T09:27:07.656Z,11.27
2023-04-03T09:29:36.319Z,11.35
2023-04-03T09:32:03.957Z,11.43
2023-04-03T09:34:36.398Z,11.51
2023-04-03T09:37:09.863Z,11.55
2023-04-03T09:39:57.214Z,11.58
2023-04-03T09:42:24.605Z,11.62
2023-04-03T09:44:58.875Z,11.66
2023-04-03T09:47:26.607Z,11.70
2023-04-03T09:50:16.407Z,11.70
2023-04-03T09:52:44.069Z,11.68
2023-04-03T09:55:18.223Z,11.68
2023-04-03T09:57:52.193Z,11.68
2023-04-03T10:00:28.809Z,11.70
2023-04-03T10:02:56.879Z,11.76
2023-04-03T10:05:28.060Z,11.81
2023-04-03T10:10:35.776Z,11.85
2023-04-03T10:13:16.481Z,11.86
2023-04-03T10:15:58.497Z,11.89
2023-04-03T16:08:40.213Z,14.75
2023-04-03T16:11:06.793Z,14.76
2023-04-03T16:13:35.930Z,14.75
2023-04-03T16:16:02.875Z,14.71
2023-04-03T16:18:29.956Z,14.62
2023-04-03T16:20:56.599Z,14.51
2023-04-03T16:23:23.462Z,14.40
2023-04-03T16:25:50.982Z,14.29
2023-04-03T16:28:18.626Z,14.19
2023-04-03T16:30:46.732Z,14.08
2023-04-03T16:33:14.191Z,13.97
2023-04-03T16:35:43.087Z,13.88
2023-04-03T16:38:09.621Z,13.81
2023-04-03T16:40:36.352Z,13.73
2023-04-03T16:43:03.204Z,13.66
2023-04-03T16:45:29.713Z,13.62
2023-04-03T16:47:56.337Z,13.56
2023-04-03T16:50:23.092Z,13.53
2023-04-03T16:52:49.781Z,13.48
2023-04-03T16:55:16.291Z,13.43
2023-04-03T16:57:45.033Z,13.37
2023-04-03T17:00:11.732Z,13.31
2023-04-03T17:02:38.260Z,13.24
2023-04-03T17:05:04.966Z,13.18
2023-04-03T17:07:31.511Z,13.09
2023-04-03T17:09:58.474Z,13.04
2023-04-03T17:12:25.251Z,12.96
2023-04-03T17:14:51.824Z,12.89
2023-04-03T17:17:24.363Z,12.81
2023-04-03T17:19:51.039Z,12.75
2023-04-03T17:22:18.248Z,12.70
2023-04-03T17:24:45.090Z,12.63
2023-04-03T17:27:11.673Z,12.58
2023-04-03T17:29:38.152Z,12.51
2023-04-03T17:32:04.805Z,12.45
2023-04-03T17:34:31.402Z,12.38
2023-04-03T17:36:57.959Z,12.32
2023-04-03T17:39:24.498Z,12.25
2023-04-03T17:41:51.002Z,12.17
2023-04-03T17:44:17.597Z,12.11
2023-04-03T17:46:44.155Z,12.06
2023-04-03T17:49:14.990Z,12.00
2023-04-03T17:51:42.325Z,11.93
2023-04-03T17:54:09.435Z,11.87
2023-04-03T17:56:36.228Z,11.80
2023-04-03T17:59:02.765Z,11.76
2023-04-03T18:01:35.932Z,11.69
2023-04-03T18:04:04.680Z,11.63
2023-04-03T18:06:36.967Z,11.56
2023-04-03T18:09:05.155Z,11.51
2023-04-03T18:11:31.811Z,11.43
2023-04-03T18:14:00.916Z,11.38
2023-04-03T18:16:29.340Z,11.31
2023-04-03T18:19:06.838Z,11.25
2023-04-03T18:21:42.644Z,11.16
2023-04-03T18:24:12.237Z,11.10
2023-04-03T18:26:40.581Z,11.03
2023-04-03T18:29:09.040Z,10.96
2023-04-03T18:31:36.527Z,10.89
2023-04-03T18:34:03.358Z,10.84
2023-04-03T18:36:29.915Z,10.78
2023-04-03T18:38:56.626Z,10.72
2023-04-03T18:41:25.005Z,10.66
2023-04-03T18:43:51.570Z,10.60
2023-04-03T18:46:22.568Z,10.54
2023-04-03T18:48:49.095Z,10.49
2023-04-03T18:51:17.561Z,10.42
2023-04-03T18:53:44.200Z,10.36
2023-04-03T18:56:11.014Z,10.31
2023-04-03T18:58:37.784Z,10.25
2023-04-03T19:01:05.149Z,10.21
2023-04-03T19:03:32.589Z,10.15
2023-04-03T19:05:59.206Z,10.08
2023-04-03T19:08:25.785Z,10.04
2023-04-03T19:10:52.296Z,9.96
2023-04-03T19:13:18.879Z,9.88
2023-04-03T19:15:51.048Z,9.83
2023-04-03T19:18:17.550Z,9.75
2023-04-03T19:20:44.036Z,9.67
2023-04-03T19:23:10.887Z,9.60
2023-04-03T19:25:38.298Z,9.54
2023-04-03T19:28:14.901Z,9.48
2023-04-03T19:30:42.154Z,9.41
2023-04-03T19:33:21.877Z,9.34
2023-04-03T19:35:48.372Z,9.28
2023-04-03T19:38:14.871Z,9.22
2023-04-03T19:40:43.893Z,9.17
2023-04-03T19:43:13.734Z,9.12
2023-04-03T19:45:41.123Z,9.06
2023-04-03T19:48:08.334Z,9.02
2023-04-03T19:50:35.002Z,8.98
2023-04-03T19:53:02.001Z,8.95
2023-04-03T19:55:32.073Z,8.91
2023-04-03T19:57:59.760Z,8.85
2023-04-03T20:00:26.854Z,8.82
2023-04-03T20:02:53.366Z,8.78
2023-04-03T20:05:19.877Z,8.72
2023-04-03T20:07:47.684Z,8.68
2023-04-03T20:10:14.814Z,8.62
2023-04-03T20:12:41.392Z,8.57
2023-04-03T20:15:09.145Z,8.52
2023-04-03T20:17:36.604Z,8.46
2023-04-03T20:20:04.605Z,8.40
2023-04-03T20:22:32.499Z,8.36
2023-04-03T20:25:05.918Z,8.32
2023-04-03T20:27:33.309Z,8.27
2023-04-03T20:30:01.159Z,8.23
2023-04-03T20:32:28.879Z,8.19
2023-04-03T20:35:03.317Z,8.15
2023-04-03T20:37:30.687Z,8.10
2023-04-03T20:39:57.121Z,8.06
2023-04-03T20:42:23.573Z,8.01
2023-04-03T20:44:50.045Z,7.97
2023-04-03T20:47:16.672Z,7.93
2023-04-03T20:49:46.437Z,7.89
2023-04-03T20:52:12.945Z,7.85
2023-04-03T20:54:40.207Z,7.82
2023-04-03T20:57:06.817Z,7.77
2023-04-03T20:59:34.226Z,7.73
2023-04-03T21:02:01.032Z,7.70
2023-04-03T21:04:32.463Z,7.65
2023-04-03T21:07:18.529Z,7.60
2023-04-03T21:10:03.626Z,7.57
2023-04-03T21:12:49.459Z,7.50
2023-04-03T21:15:34.942Z,7.43
2023-04-03T21:18:08.165Z,7.36
2023-04-03T21:20:34.804Z,7.30
2023-04-03T21:23:01.318Z,7.23
2023-04-03T21:25:28.164Z,7.18
2023-04-03T21:27:54.954Z,7.11
2023-04-03T21:30:21.714Z,7.06
2023-04-03T21:32:48.320Z,7.01
2023-04-03T21:35:14.870Z,6.96
2023-04-03T21:37:41.313Z,6.92
2023-04-03T21:40:08.588Z,6.88
2023-04-03T21:42:35.046Z,6.83
2023-04-03T21:45:01.513Z,6.78
2023-04-03T21:47:28.212Z,6.75
2023-04-03T21:49:55.507Z,6.71
2023-04-03T21:52:22.172Z,6.65
2023-04-03T21:54:48.684Z,6.60
2023-04-03T21:57:15.148Z,6.56
2023-04-03T21:59:42.045Z,6.51
2023-04-03T22:02:08.639Z,6.48
2023-04-03T22:04:35.242Z,6.43
2023-04-03T22:07:03.649Z,6.37
2023-04-03T22:09:30.204Z,6.33
2023-04-03T22:11:57.269Z,6.28
2023-04-03T22:14:23.853Z,6.24
2023-04-03T22:16:50.969Z,6.20
2023-04-03T22:19:17.566Z,6.17
2023-04-03T22:21:44.213Z,6.13
2023-04-03T22:24:10.816Z,6.10
2023-04-03T22:26:38.722Z,6.06
2023-04-03T22:29:06.250Z,6.03
2023-04-03T22:31:33.001Z,6.00
2023-04-03T22:33:59.610Z,5.97
2023-04-03T22:36:26.278Z,5.92
2023-04-03T22:38:52.965Z,5.90
2023-04-03T22:41:19.555Z,5.86
2023-04-03T22:43:46.466Z,5.81
2023-04-03T22:46:13.885Z,5.78
2023-04-03T22:48:45.455Z,5.72
2023-04-03T22:51:12.483Z,5.68
2023-04-03T22:53:39.096Z,5.64
2023-04-03T22:56:08.864Z,5.60
2023-04-03T22:58:35.554Z,5.55
2023-04-03T23:01:09.777Z,5.52
2023-04-03T23:03:37.132Z,5.46
2023-04-03T23:06:04.350Z,5.43
2023-04-03T23:08:31.331Z,5.39
2023-04-03T23:10:58.621Z,5.34
2023-04-03T23:13:25.729Z,5.31
2023-04-03T23:15:52.952Z,5.28
2023-04-03T23:18:19.558Z,5.25
2023-04-03T23:20:46.188Z,5.19
2023-04-03T23:23:12.741Z,5.17
2023-04-03T23:25:39.408Z,5.14
2023-04-03T23:28:06.033Z,5.11
2023-04-03T23:30:32.715Z,5.08
2023-04-03T23:32:59.309Z,5.04
2023-04-03T23:35:25.917Z,5.02
2023-04-03T23:37:52.604Z,4.97
2023-04-03T23:40:19.212Z,4.96
2023-04-03T23:42:46.089Z,4.91
2023-04-03T23:45:12.766Z,4.87
2023-04-03T23:47:39.358Z,4.82
2023-04-03T23:50:06.332Z,4.77
2023-04-03T23:52:32.905Z,4.75
2023-04-03T23:54:59.578Z,4.70
2023-04-03T23:57:26.121Z,4.67
2023-04-03T23:59:52.725Z,4.63
